^^
Meteo Knjazevac Station Historical Data
Daily Summary for March 1, 2021 Units:  Both    English   Metric
Daily Weekly Monthly Yearly Custom
  High: Low: Average:
Temperature: 52.7 °F /  11.5 °C 51.8 °F /  11 °C 52.3 °F /  11.3 °C
Dew Point: 50.3 °F /  10.2 °C 48.9 °F /  9.4 °C 49.6 °F /  9.8 °C
Humidity: 94% 88% 91%
Wind Speed: 7mph /  11.3km/h - 2.3mph /  3.7km/h
Wind Gust: 13mph /  20.9km/h - -
Wind- - South
Pressure: 30.03 in /  1016.8 hPa 30.00 in /  1015.8 hPa -
Precipitation: 0.00 in /  0 mm    
Historical Graphs
 
 
Tabular Data for March 1, 2021
Time Temperature Dew Point Pressure Wind Wind Speed Wind Gust Humidity Rainfall Rate (Hourly) solar Conditions
00:00 52.7 °F /  11.5 °C 49.2 °F /  9.6 °C 30.03in /  1016.8hPa ESE 3mph /  4.8km/h 6mph /  9.7km/h 88% 0.00in /  0mm 0 W/m2
00:10 52.5 °F /  11.4 °C 49.1 °F /  9.5 °C 30.03in /  1016.8hPa ESE 3mph /  4.8km/h 6mph /  9.7km/h 88% 0.00in /  0mm 0 W/m2
00:20 52.5 °F /  11.4 °C 49 °F /  9.4 °C 30.03in /  1016.8hPa ESE 2mph /  3.2km/h 7mph /  11.3km/h 88% 0.00in /  0mm 0 W/m2
00:30 52.3 °F /  11.3 °C 49.2 °F /  9.6 °C 30.02in /  1016.5hPa ENE 1mph /  1.6km/h 3mph /  4.8km/h 89% 0.00in /  0mm 0 W/m2
00:40 52.3 °F /  11.3 °C 49.5 °F /  9.7 °C 30.02in /  1016.5hPa Calm   3mph /  4.8km/h 90% 0.00in /  0mm 0 W/m2
00:50 52.2 °F /  11.2 °C 49.6 °F /  9.8 °C 30.02in /  1016.5hPa SE 2mph /  3.2km/h 3mph /  4.8km/h 91% 0.00in /  0mm 0 W/m2
01:00 52.2 °F /  11.2 °C 49.6 °F /  9.8 °C 30.02in /  1016.5hPa NE 1mph /  1.6km/h 3mph /  4.8km/h 91% 0.00in /  0mm 0 W/m2
01:10 52.3 °F /  11.3 °C 49.8 °F /  9.9 °C 30.02in /  1016.5hPa NNE 2mph /  3.2km/h 2mph /  3.2km/h 91% 0.00in /  0mm 0 W/m2
01:20 52.3 °F /  11.3 °C 49.8 °F /  9.9 °C 30.01in /  1016.1hPa NNE 2mph /  3.2km/h 3mph /  4.8km/h 91% 0.00in /  0mm 0 W/m2
01:30 52.2 °F /  11.2 °C 49.6 °F /  9.8 °C 30.01in /  1016.1hPa ENE 2mph /  3.2km/h 4mph /  6.4km/h 91% 0.00in /  0mm 0 W/m2
01:40 52.2 °F /  11.2 °C 49.6 °F /  9.8 °C 30.01in /  1016.1hPa Calm   2mph /  3.2km/h 91% 0.00in /  0mm 0 W/m2
01:50 52 °F /  11.1 °C 49.4 °F /  9.7 °C 30.01in /  1016.1hPa Calm   2mph /  3.2km/h 91% 0.00in /  0mm 0 W/m2
02:00 52 °F /  11.1 °C 49.7 °F /  9.8 °C 30.01in /  1016.1hPa Calm   2mph /  3.2km/h 92% 0.00in /  0mm 0 W/m2
02:10 51.8 °F /  11 °C 49.8 °F /  9.9 °C 30.01in /  1016.1hPa North 1mph /  1.6km/h 3mph /  4.8km/h 93% 0.00in /  0mm 0 W/m2
02:20 51.8 °F /  11 °C 49.8 °F /  9.9 °C 30.01in /  1016.1hPa NNE 2mph /  3.2km/h 3mph /  4.8km/h 93% 0.00in /  0mm 0 W/m2
02:30 51.8 °F /  11 °C 49.8 °F /  9.9 °C 30.01in /  1016.1hPa NE 2mph /  3.2km/h 4mph /  6.4km/h 93% 0.00in /  0mm 0 W/m2
02:40 51.8 °F /  11 °C 49.8 °F /  9.9 °C 30.01in /  1016.1hPa Calm   4mph /  6.4km/h 93% 0.00in /  0mm 0 W/m2
02:50 52 °F /  11.1 °C 50 °F /  10 °C 30.01in /  1016.1hPa Calm   3mph /  4.8km/h 93% 0.00in /  0mm 0 W/m2
03:00 52 °F /  11.1 °C 50.3 °F /  10.2 °C 30.01in /  1016.1hPa Calm   2mph /  3.2km/h 94% 0.00in /  0mm 0 W/m2
03:10 52 °F /  11.1 °C 50.3 °F /  10.2 °C 30.01in /  1016.1hPa SE 2mph /  3.2km/h 5mph /  8km/h 94% 0.00in /  0mm 0 W/m2
03:20 52 °F /  11.1 °C 50.3 °F /  10.2 °C 30.01in /  1016.1hPa Calm   7mph /  11.3km/h 94% 0.00in /  0mm 0 W/m2
03:30 52 °F /  11.1 °C 50.3 °F /  10.2 °C 30.01in /  1016.1hPa WSW 2mph /  3.2km/h 4mph /  6.4km/h 94% 0.00in /  0mm 0 W/m2
03:40 52.2 °F /  11.2 °C 50.2 °F /  10.1 °C 30.01in /  1016.1hPa SW 1mph /  1.6km/h 3mph /  4.8km/h 93% 0.00in /  0mm 0 W/m2
03:50 52.2 °F /  11.2 °C 50.2 °F /  10.1 °C 30.00in /  1015.8hPa West 1mph /  1.6km/h 5mph /  8km/h 93% 0.00in /  0mm 0 W/m2
04:00 52.3 °F /  11.3 °C 49.8 °F /  9.9 °C 30.00in /  1015.8hPa West 2mph /  3.2km/h 7mph /  11.3km/h 91% 0.00in /  0mm 0 W/m2
04:10 52.3 °F /  11.3 °C 49.8 °F /  9.9 °C 30.00in /  1015.8hPa West 2mph /  3.2km/h 6mph /  9.7km/h 91% 0.00in /  0mm 0 W/m2
04:20 52.5 °F /  11.4 °C 49.7 °F /  9.8 °C 30.01in /  1016.1hPa WSW 2mph /  3.2km/h 8mph /  12.9km/h 90% 0.00in /  0mm 0 W/m2
04:30 52.7 °F /  11.5 °C 49.8 °F /  9.9 °C 30.00in /  1015.8hPa West 5mph /  8km/h 8mph /  12.9km/h 90% 0.00in /  0mm 0 W/m2
04:40 52.7 °F /  11.5 °C 49.5 °F /  9.7 °C 30.00in /  1015.8hPa West 3mph /  4.8km/h 8mph /  12.9km/h 89% 0.00in /  0mm 0 W/m2
04:50 52.6 °F /  11.4 °C 49.4 °F /  9.7 °C 30.00in /  1015.8hPa West 2mph /  3.2km/h 6mph /  9.7km/h 89% 0.00in /  0mm 0 W/m2
05:00 52.7 °F /  11.5 °C 49.5 °F /  9.7 °C 30.00in /  1015.8hPa WNW 2mph /  3.2km/h 7mph /  11.3km/h 89% 0.00in /  0mm 1 W/m2
05:10 52.7 °F /  11.5 °C 49.5 °F /  9.7 °C 30.01in /  1016.1hPa West 2mph /  3.2km/h 5mph /  8km/h 89% 0.00in /  0mm 2 W/m2
05:20 52.5 °F /  11.4 °C 49.1 °F /  9.5 °C 30.00in /  1015.8hPa WSW 3mph /  4.8km/h 5mph /  8km/h 88% 0.00in /  0mm 4 W/m2
05:30 52.5 °F /  11.4 °C 49.1 °F /  9.5 °C 30.01in /  1016.1hPa West 5mph /  8km/h 7mph /  11.3km/h 88% 0.00in /  0mm 6 W/m2
05:40 52.4 °F /  11.3 °C 49 °F /  9.4 °C 30.01in /  1016.1hPa West 7mph /  11.3km/h 12mph /  19.3km/h 88% 0.00in /  0mm 11 W/m2
05:50 52.3 °F /  11.3 °C 49.2 °F /  9.6 °C 30.01in /  1016.1hPa West 7mph /  11.3km/h 13mph /  20.9km/h 89% 0.00in /  0mm 15 W/m2
06:00 52.3 °F /  11.3 °C 48.9 °F /  9.4 °C 30.01in /  1016.1hPa West 5mph /  8km/h 13mph /  20.9km/h 88% 0.00in /  0mm 15 W/m2
06:10 52.3 °F /  11.3 °C 48.9 °F /  9.4 °C 30.01in /  1016.1hPa WSW 5mph /  8km/h 10mph /  16.1km/h 88% 0.00in /  0mm 20 W/m2
06:20 52.3 °F /  11.3 °C 49.2 °F /  9.6 °C 30.00in /  1015.8hPa West 6mph /  9.7km/h 13mph /  20.9km/h 89% 0.00in /  0mm 28 W/m2
06:30 52.3 °F /  11.3 °C 49.2 °F /  9.6 °C 30.00in /  1015.8hPa WSW 5mph /  8km/h 12mph /  19.3km/h 89% 0.00in /  0mm 42 W/m2
Knjazevac, Serbia
Compliments of Weather Underground - 2 mb